Time;durP1;ratioP1;P1;durP2;ratioP2;P2;SDS_P1;SDS_P2;PMS_P1;PMS_P2;Temp;Humidity;BMP_temperature;BMP_pressure;BME280_temperature;BME280_humidity;BME280_pressure;Samples;Min_cycle;Max_cycle;Signal;HPM_P1;HPM_P2
2024/02/25 00:01:36;;;;;;;;;53.00;44.50;;;;;7.35;100.00;99150.09;6276177;20;2846132;-54
2024/02/25 00:04:05;;;;;;;;;52.33;41.00;;;;;7.53;100.00;99146.34;6274587;20;2872181;-52
2024/02/25 00:06:35;;;;;;;;;47.67;41.00;;;;;7.42;100.00;99146.09;6308033;20;2866160;-55
2024/02/25 00:09:05;;;;;;;;;50.33;40.00;;;;;7.17;100.00;99138.63;6310516;20;3599257;-50
2024/02/25 00:11:34;;;;;;;;;48.00;39.00;;;;;7.24;100.00;99140.88;6274266;20;2858674;-51
2024/02/25 00:14:03;;;;;;;;;45.50;38.00;;;;;7.34;100.00;99151.00;6274638;20;2855531;-55
2024/02/25 00:16:33;;;;;;;;;47.50;39.50;;;;;7.21;100.00;99159.75;6276119;20;2867044;-54
2024/02/25 00:19:03;;;;;;;;;40.50;37.50;;;;;7.26;100.00;99165.66;6275365;20;2860711;-54
2024/02/25 00:21:33;;;;;;;;;53.33;40.00;;;;;7.16;100.00;99161.81;6274290;20;3601338;-52
2024/02/25 00:24:02;;;;;;;;;41.00;35.50;;;;;7.10;100.00;99170.13;6306561;20;2853427;-54
2024/02/25 00:26:32;;;;;;;;;44.00;35.67;;;;;6.84;100.00;99168.91;6272325;20;2862786;-54
2024/02/25 00:29:01;;;;;;;;;36.33;34.67;;;;;6.84;100.00;99162.72;6308889;20;3591930;-54
2024/02/25 00:31:30;;;;;;;;;40.50;35.50;;;;;6.95;100.00;99158.53;6271392;20;2859842;-54
2024/02/25 00:33:59;;;;;;;;;46.00;38.33;;;;;6.99;100.00;99153.88;6273453;20;3602030;-53
2024/02/25 00:36:28;;;;;;;;;45.00;37.00;;;;;6.50;100.00;99154.75;6308521;20;3618063;-53
2024/02/25 00:38:58;;;;;;;;;37.67;35.67;;;;;6.60;100.00;99139.94;6274972;20;3590303;-52
2024/02/25 00:41:28;;;;;;;;;53.00;42.00;;;;;7.00;100.00;99147.56;6304903;20;2872403;-54
2024/02/25 00:43:57;;;;;;;;;54.00;44.00;;;;;6.76;100.00;99139.97;6306576;20;2860706;-54
2024/02/25 00:46:25;;;;;;;;;53.00;43.50;;;;;6.94;100.00;99145.25;6276069;20;2850415;-54
2024/02/25 00:48:53;;;;;;;;;44.50;37.00;;;;;7.36;100.00;99144.63;6272774;20;2500348;-55
2024/02/25 00:51:22;;;;;;;;;55.00;44.00;;;;;6.91;100.00;99142.75;6274259;20;2844806;-55
2024/02/25 00:53:52;;;;;;;;;49.33;40.33;;;;;6.85;100.00;99137.78;6272794;20;2871242;-52
2024/02/25 00:56:20;;;;;;;;;56.00;45.00;;;;;7.03;100.00;99144.75;6303736;20;2859655;-54
2024/02/25 00:58:49;;;;;;;;;50.50;41.00;;;;;7.14;100.00;99152.16;6274298;20;2856665;-53
2024/02/25 01:01:18;;;;;;;;;43.00;37.00;;;;;6.77;100.00;99156.88;6273099;20;2836859;-54
2024/02/25 01:03:46;;;;;;;;;48.50;40.50;;;;;6.91;100.00;99151.63;6275837;20;2866953;-54
2024/02/25 01:06:16;;;;;;;;;49.33;39.00;;;;;7.09;100.00;99155.06;6271278;20;3623200;-52
2024/02/25 01:08:46;;;;;;;;;44.00;37.00;;;;;7.16;100.00;99153.78;6305340;20;2866188;-53
2024/02/25 01:11:15;;;;;;;;;44.33;36.67;;;;;7.30;100.00;99154.81;6305178;20;2869121;-54
2024/02/25 01:13:47;;;;;;;;;51.33;41.00;;;;;6.65;100.00;99152.19;6304457;20;3591086;-53
2024/02/25 01:16:16;;;;;;;;;53.67;42.00;;;;;6.76;100.00;99155.97;6305697;20;2878539;-55
2024/02/25 01:18:46;;;;;;;;;51.00;41.67;;;;;7.12;100.00;99172.72;6302390;20;2853956;-54
2024/02/25 01:21:15;;;;;;;;;49.50;41.50;;;;;6.85;100.00;99170.63;6303795;20;2844169;-53
2024/02/25 01:23:44;;;;;;;;;47.00;39.50;;;;;6.98;100.00;99170.84;6273859;20;2860772;-54
2024/02/25 01:26:13;;;;;;;;;53.00;42.00;;;;;6.69;100.00;99172.41;6272444;20;3602408;-49
2024/02/25 01:28:42;;;;;;;;;45.50;38.00;;;;;7.09;100.00;99163.09;6273902;20;2856528;-54
2024/02/25 01:31:10;;;;;;;;;46.50;38.50;;;;;7.23;100.00;99173.84;6273417;20;2844148;-53
2024/02/25 01:33:40;;;;;;;;;43.00;38.33;;;;;6.88;100.00;99169.63;6272060;20;2873194;-55
2024/02/25 01:36:09;;;;;;;;;41.33;37.00;;;;;7.06;100.00;99171.28;6306465;20;2871187;-54
2024/02/25 01:38:39;;;;;;;;;51.67;41.00;;;;;7.28;100.00;99164.72;6302451;20;2873359;-52
2024/02/25 01:41:08;;;;;;;;;58.50;45.00;;;;;7.23;100.00;99168.50;6309445;20;2854477;-52
2024/02/25 01:43:40;;;;;;;;;53.67;44.00;;;;;6.94;100.00;99161.25;6279755;20;2858595;-55
2024/02/25 01:46:08;;;;;;;;;49.50;40.50;;;;;6.65;100.00;99155.69;6308973;20;2858632;-53
2024/02/25 01:48:38;;;;;;;;;57.00;43.00;;;;;6.58;100.00;99155.19;6279353;20;2876348;-52
2024/02/25 01:51:08;;;;;;;;;52.33;41.33;;;;;6.86;100.00;99155.50;6278152;20;2867033;-54
2024/02/25 01:53:38;;;;;;;;;47.00;36.67;;;;;7.31;100.00;99154.72;6310662;20;3630483;-52
2024/02/25 01:56:08;;;;;;;;;51.67;41.33;;;;;7.43;100.00;99161.19;6307120;20;2868546;-55
2024/02/25 01:58:37;;;;;;;;;49.00;39.00;;;;;7.51;100.00;99147.41;6311189;20;3620077;-54
2024/02/25 02:01:09;;;;;;;;;48.50;39.00;;;;;7.53;100.00;99149.03;6306462;20;2840921;-51
2024/02/25 02:03:38;;;;;;;;;40.67;37.00;;;;;7.21;100.00;99167.75;6277229;20;2862842;-52
2024/02/25 02:06:09;;;;;;;;;38.67;33.67;;;;;6.60;100.00;99165.75;6309930;20;3576389;-54
2024/02/25 02:08:38;;;;;;;;;33.00;30.67;;;;;6.91;100.00;99185.44;6311700;20;3602347;-53
2024/02/25 02:11:19;;;;;;;;;31.67;28.00;;;;;6.62;100.00;99171.88;6277574;20;2857593;-51
2024/02/25 02:13:48;;;;;;;;;33.67;28.00;;;;;6.51;100.00;99171.59;6308781;20;3611735;-52
2024/02/25 02:16:17;;;;;;;;;29.50;29.50;;;;;6.37;100.00;99175.88;6275818;20;2845063;-52
2024/02/25 02:18:47;;;;;;;;;28.50;27.50;;;;;6.51;100.00;99171.59;6276213;20;2845117;-54
2024/02/25 02:21:23;;;;;;;;;31.50;28.00;;;;;6.43;100.00;99168.47;6277204;20;2848188;-54
2024/02/25 02:23:53;;;;;;;;;30.50;27.50;;;;;6.25;100.00;99168.50;6277807;20;2852877;-51
2024/02/25 02:26:22;;;;;;;;;35.33;29.67;;;;;6.89;100.00;99172.19;6274746;20;2856607;-54
2024/02/25 02:28:51;;;;;;;;;28.00;24.50;;;;;6.40;100.00;99171.28;6309054;20;2839998;-54
2024/02/25 02:31:20;;;;;;;;;28.00;26.50;;;;;6.73;100.00;99173.97;6275912;20;2847307;-55
2024/02/25 02:33:50;;;;;;;;;27.00;23.00;;;;;6.45;100.00;99171.91;6277336;20;2844029;-52
2024/02/25 02:36:19;;;;;;;;;22.50;21.00;;;;;6.10;100.00;99154.16;6277902;20;2834679;-51
2024/02/25 02:38:47;;;;;;;;;32.00;28.00;;;;;5.97;100.00;99161.06;6276458;20;2496197;-55
2024/02/25 02:41:19;;;;;;;;;27.00;24.00;;;;;6.00;100.00;99158.22;6277007;20;2846177;-54
2024/02/25 02:43:47;;;;;;;;;28.00;26.00;;;;;5.94;100.00;99161.22;6278707;20;2844027;-55
2024/02/25 02:46:15;;;;;;;;;27.00;26.00;;;;;5.83;100.00;99164.41;6276254;20;2500342;-55
2024/02/25 02:48:44;;;;;;;;;29.50;27.00;;;;;6.42;100.00;99169.41;6277274;20;2855593;-53
2024/02/25 02:51:14;;;;;;;;;32.33;28.67;;;;;6.48;100.00;99167.28;6276002;20;2857540;-53
2024/02/25 02:53:43;;;;;;;;;30.67;27.67;;;;;6.31;100.00;99164.63;6309132;20;2856673;-54
2024/02/25 02:56:12;;;;;;;;;38.33;30.00;;;;;6.67;100.00;99166.31;6310337;20;3606476;-54
2024/02/25 02:58:41;;;;;;;;;35.00;30.50;;;;;6.27;100.00;99160.44;6278550;20;2847288;-53
2024/02/25 03:01:10;;;;;;;;;29.67;28.00;;;;;5.92;100.00;99158.63;6277656;20;2860718;-51
2024/02/25 03:03:39;;;;;;;;;27.00;24.00;;;;;6.54;100.00;99166.09;6308173;20;2848191;-53
2024/02/25 03:06:08;;;;;;;;;27.00;25.00;;;;;5.75;100.00;99161.25;6276613;20;2848222;-53
2024/02/25 03:08:40;;;;;;;;;28.00;26.00;;;;;5.64;100.00;99161.81;6275558;20;2850280;-55
2024/02/25 03:11:09;;;;;;;;;32.50;26.50;;;;;5.73;100.00;99160.47;6275610;20;2854452;-51
2024/02/25 03:13:39;;;;;;;;;37.00;32.00;;;;;6.47;100.00;99154.03;6276939;20;3616940;-54
2024/02/25 03:16:08;;;;;;;;;41.00;34.67;;;;;6.51;100.00;99164.44;6306287;20;2858732;-53
2024/02/25 03:18:37;;;;;;;;;38.67;33.67;;;;;6.28;100.00;99162.16;6308431;20;3564872;-55
2024/02/25 03:21:06;;;;;;;;;35.00;32.00;;;;;6.21;100.00;99152.72;6309060;20;3574299;-54
2024/02/25 03:23:37;;;;;;;;;35.67;34.00;;;;;6.07;100.00;99161.44;6307294;20;2859819;-52
2024/02/25 03:26:13;;;;;;;;;50.67;39.00;;;;;6.09;100.00;99154.25;6311515;20;3626458;-53
2024/02/25 03:28:43;;;;;;;;;47.67;38.33;;;;;5.82;100.00;99162.69;6275476;20;3613802;-55
2024/02/25 03:31:12;;;;;;;;;44.00;38.00;;;;;5.73;100.00;99153.34;6305605;20;2864970;-54
2024/02/25 03:33:42;;;;;;;;;45.33;36.00;;;;;5.44;100.00;99146.81;6307986;20;3625328;-54
2024/02/25 03:36:11;;;;;;;;;30.50;29.00;;;;;5.49;100.00;99147.44;6306960;20;2850280;-53
2024/02/25 03:38:43;;;;;;;;;44.00;35.67;;;;;5.21;100.00;99144.41;6277342;20;2856536;-53
2024/02/25 03:41:12;;;;;;;;;49.00;39.33;;;;;5.48;100.00;99143.06;6308373;20;3628479;-52
2024/02/25 03:43:41;;;;;;;;;37.00;34.00;;;;;5.42;100.00;99143.34;6274633;20;2855498;-53
2024/02/25 03:46:11;;;;;;;;;43.33;36.00;;;;;5.39;100.00;99142.63;6306131;20;2862517;-54
2024/02/25 03:48:39;;;;;;;;;42.00;38.50;;;;;5.06;100.00;99144.22;6308838;20;2858657;-54
2024/02/25 03:51:09;;;;;;;;;45.00;38.00;;;;;5.18;100.00;99155.19;6275002;20;2869138;-53
2024/02/25 03:53:39;;;;;;;;;36.33;29.33;;;;;5.47;100.00;99154.63;6307732;20;2863869;-54
2024/02/25 03:56:08;;;;;;;;;44.33;34.00;;;;;5.93;100.00;99162.13;6307832;20;3627319;-52
2024/02/25 03:58:38;;;;;;;;;36.67;30.00;;;;;5.74;100.00;99162.22;6308278;20;2867114;-52
2024/02/25 04:01:07;;;;;;;;;26.50;24.00;;;;;5.62;100.00;99154.81;6305983;20;2850365;-53
2024/02/25 04:03:35;;;;;;;;;34.00;29.00;;;;;5.70;100.00;99169.47;6275852;20;2853440;-55
2024/02/25 04:06:05;;;;;;;;;51.67;40.00;;;;;5.67;100.00;99174.09;6276085;20;2857734;-54
2024/02/25 04:08:34;;;;;;;;;37.33;34.67;;;;;5.31;100.00;99172.28;6308481;20;3590942;-54
2024/02/25 04:11:03;;;;;;;;;34.50;29.00;;;;;4.95;100.00;99158.94;6271698;20;2856516;-55
2024/02/25 04:13:31;;;;;;;;;25.00;24.00;;;;;5.04;100.00;99154.06;6272437;20;2500333;-49
2024/02/25 04:16:01;;;;;;;;;34.00;30.67;;;;;4.91;100.00;99163.56;6274063;20;2860813;-51
2024/02/25 04:18:31;;;;;;;;;35.67;31.67;;;;;5.21;100.00;99157.69;6306460;20;2864999;-51
2024/02/25 04:21:00;;;;;;;;;39.00;36.00;;;;;5.43;100.00;99155.75;6307041;20;2849223;-51
2024/02/25 04:23:30;;;;;;;;;36.00;32.00;;;;;5.40;100.00;99147.91;6272999;20;2859704;-52
2024/02/25 04:25:58;;;;;;;;;35.00;33.00;;;;;5.53;100.00;99149.94;6305402;20;2848324;-53
2024/02/25 04:28:28;;;;;;;;;38.00;34.67;;;;;5.72;100.00;99146.28;6272340;20;2866187;-52
2024/02/25 04:30:59;;;;;;;;;28.63;25.88;;;;;5.59;100.00;99153.19;6332377;20;3577341;-54
2024/02/25 04:33:28;;;;;;;;;33.00;30.00;;;;;5.24;100.00;99144.28;6306630;20;2807620;-54
2024/02/25 04:35:58;;;;;;;;;42.33;34.00;;;;;5.41;100.00;99141.63;6275476;20;2881688;-53
2024/02/25 04:38:26;;;;;;;;;35.00;30.00;;;;;5.36;100.00;99143.66;6309618;20;3604474;-51
2024/02/25 04:40:58;;;;;;;;;38.00;31.67;;;;;5.28;100.00;99151.16;6272233;20;2868083;-54
2024/02/25 04:43:26;;;;;;;;;34.67;32.67;;;;;5.71;100.00;99143.69;6308646;20;3596121;-54
2024/02/25 04:45:55;;;;;;;;;32.00;28.50;;;;;6.04;100.00;99141.16;6272287;20;2852396;-52
2024/02/25 04:48:25;;;;;;;;;41.00;35.00;;;;;6.32;100.00;99147.72;6272488;20;2849400;-52
2024/02/25 04:50:56;;;;;;;;;30.50;24.00;;;;;6.17;100.00;99146.72;6302743;20;2841928;-51
2024/02/25 04:53:26;;;;;;;;;33.33;31.33;;;;;5.79;100.00;99151.31;6274199;20;2858644;-53
2024/02/25 04:55:56;;;;;;;;;72.33;56.00;;;;;5.92;100.00;99152.41;6302755;20;3629436;-55
2024/02/25 04:58:25;;;;;;;;;60.50;46.50;;;;;6.27;100.00;99153.28;6302374;20;2866997;-52
2024/02/25 05:00:54;;;;;;;;;56.33;43.67;;;;;6.28;100.00;99149.66;6270076;20;2869113;-53
2024/02/25 05:03:23;;;;;;;;;50.50;41.00;;;;;6.15;100.00;99149.44;6301690;20;2844000;-52
2024/02/25 05:05:52;;;;;;;;;50.00;40.00;;;;;5.93;100.00;99154.16;6271006;20;2845183;-51
2024/02/25 05:08:21;;;;;;;;;58.50;47.00;;;;;6.06;100.00;99155.28;6270518;20;2860770;-54
2024/02/25 05:10:50;;;;;;;;;73.33;55.00;;;;;6.02;100.00;99155.50;6272833;20;3631500;-53
2024/02/25 05:13:20;;;;;;;;;65.67;52.33;;;;;5.84;100.00;99154.59;6302141;20;3619027;-55
2024/02/25 05:15:49;;;;;;;;;69.33;53.33;;;;;5.74;100.00;99162.22;6306026;20;3624340;-54
2024/02/25 05:18:19;;;;;;;;;69.67;52.00;;;;;5.86;100.00;99153.59;6306059;20;3624226;-54
2024/02/25 05:20:48;;;;;;;;;67.33;52.33;;;;;5.61;100.00;99164.63;6308879;20;3630939;-51
2024/02/25 05:23:18;;;;;;;;;60.50;46.00;;;;;6.07;100.00;99167.63;6308708;20;2869461;-53
2024/02/25 05:25:47;;;;;;;;;64.67;52.33;;;;;6.70;100.00;99172.31;6274551;20;2875352;-51
2024/02/25 05:28:17;;;;;;;;;64.67;51.00;;;;;6.53;100.00;99180.34;6306654;20;2883744;-52
2024/02/25 05:30:46;;;;;;;;;45.00;35.33;;;;;6.15;100.00;99181.44;6306036;20;3631675;-54
2024/02/25 05:33:16;;;;;;;;;34.67;30.33;;;;;5.61;100.00;99185.03;6304278;20;3606563;-51
2024/02/25 05:35:45;;;;;;;;;27.00;25.50;;;;;5.70;100.00;99184.59;6308728;20;2834662;-51
2024/02/25 05:38:12;;;;;;;;;19.00;19.00;;;;;5.82;100.00;99189.31;6275195;20;2500469;-54
2024/02/25 05:40:43;;;;;;;;;32.50;27.00;;;;;5.78;100.00;99192.22;6272878;20;2845109;-50
2024/02/25 05:43:12;;;;;;;;;38.33;31.33;;;;;5.77;100.00;99198.50;6276547;20;2869155;-54
2024/02/25 05:45:42;;;;;;;;;30.00;30.00;;;;;5.55;100.00;99190.69;6305780;20;2851351;-55
2024/02/25 05:48:11;;;;;;;;;41.67;36.00;;;;;5.78;100.00;99186.88;6274425;20;2861242;-54
2024/02/25 05:50:41;;;;;;;;;80.33;63.33;;;;;5.94;100.00;99188.72;6309423;20;3640694;-54
2024/02/25 05:53:11;;;;;;;;;74.00;58.67;;;;;6.18;100.00;99190.22;6310497;20;3634405;-53
2024/02/25 05:55:40;;;;;;;;;72.67;55.33;;;;;6.19;100.00;99189.25;6309960;20;3640896;-55
2024/02/25 05:58:10;;;;;;;;;68.67;55.33;;;;;6.06;100.00;99191.72;6309395;20;2869070;-54
2024/02/25 06:00:39;;;;;;;;;76.67;58.00;;;;;6.19;100.00;99190.16;6305562;20;3636718;-53
2024/02/25 06:03:09;;;;;;;;;81.67;62.67;;;;;6.35;100.00;99192.88;6306459;20;3632567;-53
2024/02/25 06:05:39;;;;;;;;;84.00;64.00;;;;;6.15;100.00;99185.91;6309297;20;3646145;-55
2024/02/25 06:08:08;;;;;;;;;83.67;64.33;;;;;6.18;100.00;99185.75;6306738;20;3644093;-53
2024/02/25 06:10:38;;;;;;;;;71.00;56.33;;;;;6.49;100.00;99178.81;6309931;20;3635802;-55
2024/02/25 06:13:08;;;;;;;;;76.33;60.33;;;;;6.21;100.00;99184.72;6309572;20;3623186;-51
2024/02/25 06:15:37;;;;;;;;;76.33;59.33;;;;;5.99;100.00;99182.31;6310002;20;3638812;-55
2024/02/25 06:18:10;;;;;;;;;70.33;54.67;;;;;5.98;100.00;99183.22;6309494;20;3622196;-53
2024/02/25 06:20:40;;;;;;;;;76.33;57.00;;;;;6.06;100.00;99181.91;6310500;20;3636728;-50
2024/02/25 06:23:09;;;;;;;;;65.00;49.67;;;;;6.36;100.00;99189.25;6308536;20;2877512;-53
2024/02/25 06:25:39;;;;;;;;;66.00;52.00;;;;;6.21;100.00;99190.06;6307200;20;2877440;-53
2024/02/25 06:28:08;;;;;;;;;59.00;46.67;;;;;6.04;100.00;99198.91;6309800;20;3618073;-53
2024/02/25 06:30:37;;;;;;;;;54.50;43.00;;;;;6.52;100.00;99210.66;6309659;20;2858781;-52
2024/02/25 06:33:06;;;;;;;;;51.00;42.00;;;;;6.35;100.00;99211.53;6278642;20;2861793;-54
2024/02/25 06:35:35;;;;;;;;;48.00;41.50;;;;;6.58;100.00;99215.66;6308092;20;2860686;-51
2024/02/25 06:38:06;;;;;;;;;59.00;41.00;;;;;6.77;100.00;99211.06;6276641;20;2868065;-55
2024/02/25 06:40:35;;;;;;;;;54.50;43.50;;;;;6.56;100.00;99217.56;6308725;20;2866949;-50
2024/02/25 06:43:08;;;;;;;;;53.50;41.50;;;;;6.77;100.00;99211.06;6275990;20;2878550;-53
2024/02/25 06:45:37;;;;;;;;;53.50;42.00;;;;;6.79;100.00;99209.19;6277395;20;2852053;-56
2024/02/25 06:48:06;;;;;;;;;49.50;40.50;;;;;7.02;100.00;99209.75;6274326;20;2857654;-54
2024/02/25 06:50:36;;;;;;;;;51.67;45.00;;;;;7.04;100.00;99202.50;6278485;20;2873169;-54
2024/02/25 06:53:05;;;;;;;;;53.00;42.67;;;;;6.50;100.00;99199.19;6308004;20;2874401;-55
2024/02/25 06:55:34;;;;;;;;;49.50;41.00;;;;;6.48;100.00;99196.63;6309102;20;2840988;-52
2024/02/25 06:58:04;;;;;;;;;50.67;41.00;;;;;6.67;100.00;99193.84;6277105;20;3615894;-54
2024/02/25 07:00:35;;;;;;;;;52.00;39.00;;;;;6.44;100.00;99196.84;6307727;20;2868166;-54
2024/02/25 07:03:04;;;;;;;;;51.00;38.50;;;;;6.21;100.00;99190.91;6275557;20;2867060;-54
2024/02/25 07:05:33;;;;;;;;;44.50;39.50;;;;;6.36;100.00;99189.25;6275989;20;2849341;-52
2024/02/25 07:08:03;;;;;;;;;53.00;41.50;;;;;6.55;100.00;99190.00;6278532;20;2862819;-55
2024/02/25 07:10:30;;;;;;;;;52.50;41.00;;;;;6.92;100.00;99192.50;6275311;20;2499334;-55
2024/02/25 07:12:59;;;;;;;;;55.50;44.00;;;;;6.76;100.00;99184.47;6277738;20;2861778;-54
2024/02/25 07:15:29;;;;;;;;;55.00;42.00;;;;;6.70;100.00;99183.00;6273690;20;2878541;-52
2024/02/25 07:17:57;;;;;;;;;44.00;38.50;;;;;6.50;100.00;99188.53;6308492;20;2858628;-52
2024/02/25 07:20:27;;;;;;;;;58.00;44.00;;;;;6.54;100.00;99198.09;6276853;20;2868056;-52
2024/02/25 07:22:56;;;;;;;;;50.00;41.00;;;;;6.89;100.00;99198.00;6309364;20;2867038;-53
2024/02/25 07:25:25;;;;;;;;;56.00;44.50;;;;;7.38;100.00;99206.84;6274408;20;2861853;-54
2024/02/25 07:27:55;;;;;;;;;51.33;38.00;;;;;7.67;100.00;99210.53;6266011;20;3614923;-56
2024/02/25 07:30:24;;;;;;;;;53.00;41.50;;;;;8.09;100.00;99211.66;6299707;20;2851309;-52
2024/02/25 07:32:53;;;;;;;;;54.33;41.00;;;;;7.50;100.00;99209.75;6275177;20;3613802;-55
2024/02/25 07:35:22;;;;;;;;;58.50;46.50;;;;;7.86;100.00;99204.13;6303896;20;2864979;-51
2024/02/25 07:37:52;;;;;;;;;57.33;45.00;;;;;8.89;100.00;99214.88;6269047;20;2883899;-52
2024/02/25 07:40:21;;;;;;;;;54.50;43.50;;;;;9.57;100.00;99207.91;6305765;20;2848292;-55
2024/02/25 07:42:50;;;;;;;;;56.33;44.67;;;;;9.52;100.00;99210.03;6274598;20;3627452;-55
2024/02/25 07:45:20;;;;;;;;;49.67;39.00;;;;;9.39;100.00;99213.47;6302423;20;2860745;-54
2024/02/25 07:47:49;;;;;;;;;48.50;40.50;;;;;10.13;100.00;99202.41;6304922;20;2850314;-53
2024/02/25 07:50:18;;;;;;;;;44.00;37.00;;;;;10.25;100.00;99196.22;6269693;20;2865995;-54
2024/02/25 07:52:48;;;;;;;;;58.67;45.00;;;;;9.83;100.00;99201.69;6304288;20;3636763;-55
2024/02/25 07:55:17;;;;;;;;;36.67;33.67;;;;;11.32;97.15;99209.31;6305151;20;3607555;-53
2024/02/25 07:57:47;;;;;;;;;30.00;28.67;;;;;10.14;96.12;99215.75;6274966;20;2847313;-55
2024/02/25 08:00:16;;;;;;;;;31.00;30.00;;;;;11.76;92.98;99216.84;6309719;20;3583586;-55
2024/02/25 08:02:46;;;;;;;;;25.00;22.00;;;;;11.56;92.52;99214.78;6274185;20;2849252;-57
2024/02/25 08:05:14;;;;;;;;;21.67;20.33;;;;;11.38;93.26;99208.91;6307199;20;3570121;-57
2024/02/25 08:07:45;;;;;;;;;19.00;18.00;;;;;12.10;88.41;99214.34;6308141;20;2839852;-57
2024/02/25 08:10:15;;;;;;;;;20.00;20.00;;;;;12.01;88.53;99202.44;6275532;20;2831587;-57
2024/02/25 08:12:43;;;;;;;;;17.50;16.00;;;;;11.96;88.81;99204.63;6275255;20;2501048;-58
2024/02/25 08:15:12;;;;;;;;;20.00;19.00;;;;;11.57;91.35;99211.97;6273256;20;2823214;-57
2024/02/25 08:17:40;;;;;;;;;17.00;17.00;;;;;12.01;88.67;99217.75;6273603;20;2500319;-56
2024/02/25 08:20:10;;;;;;;;;17.00;16.00;;;;;11.30;90.96;99216.66;6274814;20;3560723;-56
2024/02/25 08:22:39;;;;;;;;;15.00;15.00;;;;;12.05;89.53;99214.69;6276710;20;3540061;-56
2024/02/25 08:25:09;;;;;;;;;12.67;12.67;;;;;11.88;89.00;99215.09;6274176;20;3519122;-55
2024/02/25 08:27:38;;;;;;;;;16.50;15.50;;;;;12.04;90.75;99212.97;6306248;20;2492054;-54
2024/02/25 08:30:06;;;;;;;;;16.50;13.50;;;;;11.96;87.24;99207.31;6276372;20;2808695;-57
2024/02/25 08:32:34;;;;;;;;;19.00;16.00;;;;;12.79;83.77;99198.25;6273441;20;2500344;-56
2024/02/25 08:35:03;;;;;;;;;14.50;14.00;;;;;11.70;90.32;99206.53;6274968;20;2500309;-56
2024/02/25 08:37:31;;;;;;;;;15.33;15.00;;;;;12.33;86.32;99191.06;6276645;20;3540979;-56
2024/02/25 08:39:59;;;;;;;;;18.50;17.50;;;;;13.21;84.52;99201.22;6277531;20;2827404;-55
2024/02/25 08:42:28;;;;;;;;;19.00;17.00;;;;;12.92;84.21;99198.16;6273499;20;3565929;-54
2024/02/25 08:44:56;;;;;;;;;13.00;13.00;;;;;13.21;82.52;99187.72;6275626;20;3529446;-54
2024/02/25 08:47:25;;;;;;;;;17.33;16.67;;;;;13.04;83.14;99191.78;6307678;20;3557550;-53
2024/02/25 08:49:54;;;;;;;;;19.50;18.00;;;;;12.59;89.02;99204.38;6272666;20;2827347;-55
2024/02/25 08:52:22;;;;;;;;;21.00;17.00;;;;;13.27;83.65;99197.19;6272938;20;2489906;-55
2024/02/25 08:54:51;;;;;;;;;18.00;18.00;;;;;13.23;84.27;99218.13;6270648;20;2841940;-53
2024/02/25 08:57:20;;;;;;;;;12.50;12.50;;;;;13.29;83.74;99219.50;6273506;20;2797305;-55
2024/02/25 08:59:48;;;;;;;;;10.00;10.00;;;;;12.57;82.95;99219.78;6272446;20;2786825;-55
2024/02/25 09:02:18;;;;;;;;;11.40;8.40;;;;;13.05;85.34;99219.59;6294710;20;2769083;-55
2024/02/25 09:04:45;;;;;;;;;11.00;11.00;;;;;12.78;84.91;99211.88;6274106;20;2789915;-54
2024/02/25 09:07:17;;;;;;;;;13.33;13.33;;;;;13.64;83.49;99222.06;6272161;20;2778414;-54
2024/02/25 09:09:45;;;;;;;;;11.00;11.00;;;;;13.57;83.77;99221.69;6305156;20;2790909;-53
2024/02/25 09:12:15;;;;;;;;;10.60;9.40;;;;;13.75;81.75;99224.72;6301523;20;2774239;-54
2024/02/25 09:14:43;;;;;;;;;11.00;9.50;;;;;14.15;79.29;99221.41;6280791;20;2773219;-55
2024/02/25 09:17:15;;;;;;;;;10.00;10.00;;;;;13.08;84.42;99214.81;6275230;20;2784676;-53
2024/02/25 09:19:44;;;;;;;;;10.20;8.80;;;;;13.61;82.14;99200.69;6299000;20;2758609;-55
2024/02/25 09:22:12;;;;;;;;;9.00;9.00;;;;;13.96;82.45;99215.84;6280180;20;2749356;-52
2024/02/25 09:24:43;;;;;;;;;6.00;6.00;;;;;13.60;83.72;99207.09;6276310;20;2750337;-53
2024/02/25 09:27:14;;;;;;;;;7.43;7.43;;;;;14.14;80.24;99205.31;6318450;20;3467967;-54
2024/02/25 09:29:42;;;;;;;;;9.00;8.00;;;;;14.57;77.18;99199.88;6306328;20;2760771;-53
2024/02/25 09:32:12;;;;;;;;;5.80;5.80;;;;;14.21;79.41;99201.97;6332655;20;2744689;-53
2024/02/25 09:34:43;;;;;;;;;9.20;9.00;;;;;13.65;81.22;99196.78;6332336;20;2746125;-52
2024/02/25 09:37:14;;;;;;;;;10.40;7.60;;;;;13.42;83.82;99193.25;6329418;20;2746083;-53
2024/02/25 09:39:47;;;;;;;;;10.00;9.00;;;;;14.19;80.34;99193.19;6310701;20;2754530;-53
2024/02/25 09:42:21;;;;;;;;;11.80;10.80;;;;;13.95;81.55;99187.97;6300203;20;2781565;-50
2024/02/25 09:44:54;;;;;;;;;10.00;10.00;;;;;12.73;86.13;99177.19;6273734;20;2781593;-54
2024/02/25 09:47:22;;;;;;;;;10.00;8.00;;;;;13.02;89.02;99180.28;6275365;20;2760714;-54
2024/02/25 09:49:50;;;;;;;;;7.50;7.50;;;;;13.55;84.65;99179.63;6279579;20;2736798;-54
2024/02/25 09:52:20;;;;;;;;;11.00;11.00;;;;;13.46;85.97;99175.00;6271842;20;2787852;-51
2024/02/25 09:54:49;;;;;;;;;11.00;10.00;;;;;14.14;82.42;99171.13;6275974;20;2779442;-52
2024/02/25 09:57:17;;;;;;;;;5.00;5.00;;;;;13.79;82.17;99168.66;6278574;20;2739943;-56
2024/02/25 09:59:44;;;;;;;;;13.00;11.00;;;;;14.20;81.48;99162.47;6276418;20;2783617;-54
2024/02/25 10:02:13;;;;;;;;;14.50;13.00;;;;;14.79;78.44;99165.59;6282846;20;2800770;-54
2024/02/25 10:04:43;;;;;;;;;10.33;10.33;;;;;14.49;78.79;99161.84;6276953;20;2778454;-55
2024/02/25 10:07:14;;;;;;;;;11.60;9.00;;;;;13.39;82.97;99158.47;6333264;20;2777342;-53
2024/02/25 10:09:43;;;;;;;;;8.00;8.00;;;;;14.97;77.92;99161.28;6280878;20;2744073;-55
2024/02/25 10:12:11;;;;;;;;;8.50;8.50;;;;;14.11;80.89;99157.84;6279760;20;2750288;-56
2024/02/25 10:14:41;;;;;;;;;10.00;10.00;;;;;14.46;78.16;99154.00;6277978;20;2771149;-55
2024/02/25 10:17:12;;;;;;;;;8.00;8.00;;;;;14.11;78.88;99152.44;6309647;20;2765043;-52
2024/02/25 10:19:53;;;;;;;;;9.33;8.67;;;;;14.66;78.39;99155.84;6309834;20;2755543;-54
2024/02/25 10:22:24;;;;;;;;;10.67;10.00;;;;;14.66;77.44;99155.84;6309747;20;2785765;-55
2024/02/25 10:25:04;;;;;;;;;7.00;7.00;;;;;14.79;77.84;99146.66;6313597;20;2740995;-53
2024/02/25 10:27:34;;;;;;;;;13.00;11.00;;;;;14.31;78.58;99144.50;6278172;20;2784657;-55
2024/02/25 10:30:05;;;;;;;;;11.00;11.00;;;;;14.05;79.35;99144.88;6284257;20;2790946;-53
2024/02/25 10:32:35;;;;;;;;;16.33;15.67;;;;;13.95;81.84;99143.94;6279801;20;3556486;-54
2024/02/25 10:35:05;;;;;;;;;45.33;39.00;;;;;14.92;78.08;99144.59;6309803;20;3586829;-55
2024/02/25 10:37:33;;;;;;;;;9.50;9.50;;;;;14.16;77.91;99139.41;6280069;20;2773203;-50
2024/02/25 10:40:05;;;;;;;;;5.60;5.20;;;;;14.66;75.55;99145.03;6306780;20;2737810;-54
2024/02/25 10:42:44;;;;;;;;;7.00;7.00;;;;;14.20;77.99;99140.88;6313508;20;2743000;-51
2024/02/25 10:45:16;;;;;;;;;10.00;10.00;;;;;14.20;76.89;99134.63;6279675;20;2765897;-54
2024/02/25 10:47:47;;;;;;;;;6.00;5.00;;;;;13.94;77.43;99134.16;6279097;20;2747145;-53
2024/02/25 10:50:19;;;;;;;;;9.00;9.00;;;;;13.88;78.65;99129.28;6277517;20;2760726;-54
2024/02/25 10:52:50;;;;;;;;;8.00;8.00;;;;;14.58;76.46;99130.50;6278233;20;2752382;-51
2024/02/25 10:55:19;;;;;;;;;11.50;10.50;;;;;14.77;76.60;99127.03;6280320;20;2788819;-54
2024/02/25 10:57:49;;;;;;;;;12.00;8.67;;;;;14.83;77.01;99113.00;6277096;20;2771147;-55
2024/02/25 11:00:19;;;;;;;;;6.80;6.60;;;;;15.50;73.05;99122.28;6332655;20;2744037;-56
2024/02/25 11:02:47;;;;;;;;;7.00;5.00;;;;;14.53;75.06;99122.78;6311869;20;2740932;-57
2024/02/25 11:05:17;;;;;;;;;5.50;5.50;;;;;14.85;75.08;99127.19;6278268;20;2742979;-54
2024/02/25 11:07:49;;;;;;;;;7.43;7.43;;;;;15.26;72.76;99125.38;6318234;20;3457633;-54
2024/02/25 11:10:21;;;;;;;;;6.00;6.00;;;;;14.45;76.35;99117.16;6311297;20;2739958;-55
2024/02/25 11:12:51;;;;;;;;;9.80;7.80;;;;;14.46;74.19;99110.78;6297993;20;2749300;-55
2024/02/25 11:15:28;;;;;;;;;7.71;6.57;;;;;14.97;74.11;99109.91;6352910;20;3449253;-55